Time;durP1;ratioP1;P1;durP2;ratioP2;P2;SDS_P1;SDS_P2;PMS_P1;PMS_P2;Temp;Humidity;BMP_temperature;BMP_pressure;BME280_temperature;BME280_humidity;BME280_pressure;Samples;Min_cycle;Max_cycle;Signal;HPM_P1;HPM_P2
2024/01/27 00:00:20;;;;;;;12.25;1.52;;;;;;;;;;5078609;28;20145;-78
2024/01/27 00:02:45;;;;;;;12.52;1.83;;;;;;;;;;5076969;28;20035;-77
2024/01/27 00:05:10;;;;;;;12.95;1.85;;;;;;;;;;5071597;28;20033;-78
2024/01/27 00:07:36;;;;;;;8.68;1.55;;;;;;;;;;5080174;28;20047;-78
2024/01/27 00:10:02;;;;;;;10.30;1.65;;;;;;;;;;5078723;28;20024;-78
2024/01/27 00:12:27;;;;;;;14.43;1.70;;;;;;;;;;5070824;28;20041;-78
2024/01/27 00:14:52;;;;;;;14.57;1.48;;;;;;;;;;5072963;28;20040;-78
2024/01/27 00:17:19;;;;;;;8.48;2.30;;;;;;;;;;5072317;28;20031;-78
2024/01/27 00:19:44;;;;;;;7.97;1.20;;;;;;;;;;5080615;28;20511;-78
2024/01/27 00:22:09;;;;;;;11.48;2.10;;;;;;;;;;5074652;28;20020;-78
2024/01/27 00:24:35;;;;;;;8.32;2.15;;;;;;;;;;5071832;28;20056;-78
2024/01/27 00:27:00;;;;;;;9.60;1.60;;;;;;;;;;5072106;28;20044;-78
2024/01/27 00:29:25;;;;;;;10.27;1.65;;;;;;;;;;5082445;28;20020;-78
2024/01/27 00:31:50;;;;;;;10.27;2.33;;;;;;;;;;5079763;28;20507;-78
2024/01/27 00:34:16;;;;;;;8.75;1.70;;;;;;;;;;5079853;28;20067;-78
2024/01/27 00:36:48;;;;;;;7.10;1.92;;;;;;;;;;5072125;28;20044;-78
2024/01/27 00:39:14;;;;;;;8.83;1.37;;;;;;;;;;5075864;28;21452;-78
2024/01/27 00:41:39;;;;;;;17.58;2.22;;;;;;;;;;5072090;28;20275;-78
2024/01/27 00:44:04;;;;;;;9.55;1.55;;;;;;;;;;5078925;28;20059;-78
2024/01/27 00:46:29;;;;;;;8.50;1.17;;;;;;;;;;5070275;28;20031;-78
2024/01/27 00:48:55;;;;;;;10.30;2.40;;;;;;;;;;5072533;28;20036;-78
2024/01/27 00:51:20;;;;;;;8.45;1.75;;;;;;;;;;5074330;28;20119;-78
2024/01/27 00:53:45;;;;;;;12.57;1.90;;;;;;;;;;5071174;28;20032;-78
2024/01/27 00:56:10;;;;;;;10.85;1.60;;;;;;;;;;5071433;28;20472;-78
2024/01/27 00:58:36;;;;;;;11.77;1.40;;;;;;;;;;5072250;28;20039;-78
2024/01/27 01:01:01;;;;;;;13.80;2.42;;;;;;;;;;5079731;28;20037;-78
2024/01/27 01:03:26;;;;;;;13.38;2.80;;;;;;;;;;5073770;28;20401;-78
2024/01/27 01:05:51;;;;;;;7.72;1.63;;;;;;;;;;5071234;28;20393;-78
2024/01/27 01:08:16;;;;;;;10.80;1.40;;;;;;;;;;5071508;28;20048;-78
2024/01/27 01:10:42;;;;;;;9.52;1.85;;;;;;;;;;5073234;28;20021;-77
2024/01/27 01:13:07;;;;;;;12.70;2.38;;;;;;;;;;5070599;28;20119;-78
2024/01/27 01:15:32;;;;;;;13.63;2.95;;;;;;;;;;5070936;28;20032;-77
2024/01/27 01:17:57;;;;;;;17.17;2.35;;;;;;;;;;5074965;28;20035;-78
2024/01/27 01:20:25;;;;;;;7.88;2.38;;;;;;;;;;5077985;28;20033;-77
2024/01/27 01:22:51;;;;;;;9.13;1.40;;;;;;;;;;5074769;28;20032;-77
2024/01/27 01:25:16;;;;;;;8.88;1.35;;;;;;;;;;5078705;28;20032;-78
2024/01/27 01:27:41;;;;;;;12.18;1.95;;;;;;;;;;5072723;28;20086;-77
2024/01/27 01:30:07;;;;;;;9.70;1.40;;;;;;;;;;5074747;28;20040;-78
2024/01/27 01:32:33;;;;;;;10.07;2.17;;;;;;;;;;5079901;28;20032;-77
2024/01/27 01:34:58;;;;;;;10.75;1.80;;;;;;;;;;5074080;28;20064;-77
2024/01/27 01:37:23;;;;;;;11.75;2.28;;;;;;;;;;5074397;28;20070;-78
2024/01/27 01:39:48;;;;;;;12.75;1.83;;;;;;;;;;5079888;28;20036;-78
2024/01/27 01:42:13;;;;;;;15.40;1.63;;;;;;;;;;5074443;28;20392;-78
2024/01/27 01:44:39;;;;;;;12.77;1.85;;;;;;;;;;5077650;28;20028;-78
2024/01/27 01:47:04;;;;;;;11.43;2.05;;;;;;;;;;5073175;28;20044;-78
2024/01/27 01:49:29;;;;;;;12.77;2.08;;;;;;;;;;5075654;28;20024;-78
2024/01/27 01:51:54;;;;;;;15.50;1.88;;;;;;;;;;5082870;28;20035;-78
2024/01/27 01:54:22;;;;;;;10.80;1.80;;;;;;;;;;5072596;28;20032;-77
2024/01/27 01:56:47;;;;;;;14.00;3.05;;;;;;;;;;5074252;28;20032;-78
2024/01/27 01:59:12;;;;;;;9.32;1.85;;;;;;;;;;5078769;28;20031;-78
2024/01/27 02:01:37;;;;;;;15.65;2.53;;;;;;;;;;5076741;28;20469;-78
2024/01/27 02:04:04;;;;;;;12.45;1.75;;;;;;;;;;5082186;28;20036;-78
2024/01/27 02:06:29;;;;;;;9.50;2.25;;;;;;;;;;5081942;28;20040;-77
2024/01/27 02:08:54;;;;;;;12.25;2.83;;;;;;;;;;5073595;28;20090;-78
2024/01/27 02:11:19;;;;;;;10.60;2.38;;;;;;;;;;5076619;28;20029;-78
2024/01/27 02:13:44;;;;;;;11.77;1.50;;;;;;;;;;5073583;28;20120;-78
2024/01/27 02:16:09;;;;;;;8.75;1.90;;;;;;;;;;5073665;28;20097;-77
2024/01/27 02:18:35;;;;;;;11.30;3.33;;;;;;;;;;5073995;28;20017;-78
2024/01/27 02:21:00;;;;;;;11.95;1.85;;;;;;;;;;5074385;28;20511;-78
2024/01/27 02:23:25;;;;;;;9.43;1.60;;;;;;;;;;5078316;28;20024;-78
2024/01/27 02:25:50;;;;;;;11.90;2.63;;;;;;;;;;5077595;28;20024;-78
2024/01/27 02:28:16;;;;;;;13.07;2.15;;;;;;;;;;5083550;28;20036;-77
2024/01/27 02:30:41;;;;;;;11.38;1.80;;;;;;;;;;5076395;28;20020;-78
2024/01/27 02:33:06;;;;;;;14.15;2.35;;;;;;;;;;5078612;28;20040;-78
2024/01/27 02:35:32;;;;;;;11.98;1.65;;;;;;;;;;5074728;28;20063;-78
2024/01/27 02:37:57;;;;;;;10.95;1.85;;;;;;;;;;5076064;28;20495;-77
2024/01/27 02:40:22;;;;;;;10.60;1.95;;;;;;;;;;5075274;28;20037;-78
2024/01/27 02:42:47;;;;;;;10.23;2.47;;;;;;;;;;5072227;28;20033;-78
2024/01/27 02:45:12;;;;;;;12.50;3.13;;;;;;;;;;5070352;28;20025;-78
2024/01/27 02:47:38;;;;;;;14.75;1.88;;;;;;;;;;5072744;28;20112;-77
2024/01/27 02:50:03;;;;;;;11.10;1.55;;;;;;;;;;5076187;28;20024;-77
2024/01/27 02:52:29;;;;;;;15.50;2.25;;;;;;;;;;5071611;28;20043;-78
2024/01/27 02:54:54;;;;;;;14.35;2.42;;;;;;;;;;5071955;28;20442;-78
2024/01/27 02:57:20;;;;;;;10.73;1.80;;;;;;;;;;5073091;28;20043;-78
2024/01/27 02:59:45;;;;;;;16.17;2.92;;;;;;;;;;5071919;28;20055;-78
2024/01/27 03:02:10;;;;;;;10.95;1.88;;;;;;;;;;5081966;28;20036;-78
2024/01/27 03:04:36;;;;;;;11.77;2.58;;;;;;;;;;5074035;28;20056;-78
2024/01/27 03:07:01;;;;;;;12.20;2.38;;;;;;;;;;5065193;28;20040;-79
2024/01/27 03:09:26;;;;;;;8.32;1.50;;;;;;;;;;5088281;28;20161;-78
2024/01/27 03:11:51;;;;;;;14.75;2.85;;;;;;;;;;5072125;28;20417;-78
2024/01/27 03:14:17;;;;;;;12.13;2.53;;;;;;;;;;5070504;28;20139;-77
2024/01/27 03:16:43;;;;;;;17.52;2.15;;;;;;;;;;5072269;28;20035;-77
2024/01/27 03:19:08;;;;;;;17.50;2.20;;;;;;;;;;5071096;28;20516;-77
2024/01/27 03:21:33;;;;;;;17.27;2.28;;;;;;;;;;5062838;28;20024;-78
2024/01/27 03:23:58;;;;;;;12.40;2.33;;;;;;;;;;5071894;28;20109;-78
2024/01/27 03:26:23;;;;;;;14.32;2.20;;;;;;;;;;5030118;28;1204794;-78
2024/01/27 03:28:48;;;;;;;12.43;1.77;;;;;;;;;;5071691;28;20058;-78
2024/01/27 03:31:14;;;;;;;10.25;1.98;;;;;;;;;;5077095;28;20114;-77
2024/01/27 03:33:39;;;;;;;15.90;2.25;;;;;;;;;;5081273;28;20024;-78
2024/01/27 03:36:09;;;;;;;9.60;2.08;;;;;;;;;;5078797;28;20028;-77
2024/01/27 03:38:36;;;;;;;11.85;1.55;;;;;;;;;;5076446;28;20038;-77
2024/01/27 03:41:01;;;;;;;16.58;3.60;;;;;;;;;;5077288;28;20582;-77
2024/01/27 03:43:26;;;;;;;14.13;2.70;;;;;;;;;;5082106;28;20036;-78
2024/01/27 03:45:52;;;;;;;17.17;2.85;;;;;;;;;;5085187;28;20029;-79
2024/01/27 03:48:17;;;;;;;10.20;2.00;;;;;;;;;;5077596;28;20035;-79
2024/01/27 03:50:42;;;;;;;11.48;2.47;;;;;;;;;;5080432;28;20488;-79
2024/01/27 03:53:07;;;;;;;13.52;1.77;;;;;;;;;;5079881;28;20032;-78
2024/01/27 03:55:34;;;;;;;15.73;3.50;;;;;;;;;;5078062;28;20119;-77
2024/01/27 03:57:59;;;;;;;9.07;2.03;;;;;;;;;;5079848;28;20476;-77
2024/01/27 04:00:24;;;;;;;12.63;1.55;;;;;;;;;;5075930;28;20085;-77
2024/01/27 04:02:49;;;;;;;12.13;1.45;;;;;;;;;;5074330;28;20032;-77
2024/01/27 04:05:14;;;;;;;11.60;1.65;;;;;;;;;;5072760;28;20056;-77
2024/01/27 04:07:40;;;;;;;12.52;2.38;;;;;;;;;;5073297;28;20033;-77
2024/01/27 04:10:05;;;;;;;15.38;2.10;;;;;;;;;;5078974;28;20039;-78
2024/01/27 04:12:30;;;;;;;14.85;1.90;;;;;;;;;;5053916;28;20147;-77
2024/01/27 04:14:56;;;;;;;15.68;2.67;;;;;;;;;;5074280;28;20425;-77
2024/01/27 04:17:22;;;;;;;15.80;1.70;;;;;;;;;;5071593;28;20039;-77
2024/01/27 04:19:47;;;;;;;11.30;2.53;;;;;;;;;;5076413;28;20028;-77
2024/01/27 04:22:12;;;;;;;9.48;1.50;;;;;;;;;;5080542;28;22221;-77
2024/01/27 04:24:38;;;;;;;12.50;1.95;;;;;;;;;;5069981;28;20038;-77
2024/01/27 04:27:03;;;;;;;14.90;1.52;;;;;;;;;;5080097;28;20070;-77
2024/01/27 04:29:28;;;;;;;10.98;1.80;;;;;;;;;;5075245;28;20063;-77
2024/01/27 04:31:54;;;;;;;10.63;1.95;;;;;;;;;;5079337;28;20032;-77
2024/01/27 04:34:19;;;;;;;9.32;1.80;;;;;;;;;;5069616;28;20077;-77
2024/01/27 04:36:45;;;;;;;16.67;2.50;;;;;;;;;;5071226;28;20081;-77
2024/01/27 04:39:10;;;;;;;13.75;2.03;;;;;;;;;;5070864;28;20097;-77
2024/01/27 04:41:40;;;;;;;12.65;2.25;;;;;;;;;;5076550;28;20021;-77
2024/01/27 04:44:06;;;;;;;12.82;1.90;;;;;;;;;;5071036;28;20039;-77
2024/01/27 04:46:31;;;;;;;10.88;2.20;;;;;;;;;;5071241;28;20028;-77
2024/01/27 04:48:56;;;;;;;16.15;2.33;;;;;;;;;;5070940;28;20447;-77
2024/01/27 04:51:21;;;;;;;8.80;2.15;;;;;;;;;;5079278;28;20492;-77
2024/01/27 04:53:46;;;;;;;7.10;1.92;;;;;;;;;;5074535;28;20067;-77
2024/01/27 04:56:12;;;;;;;11.43;1.48;;;;;;;;;;5071251;28;20098;-77
2024/01/27 04:58:38;;;;;;;16.48;2.15;;;;;;;;;;5076251;28;20403;-77
2024/01/27 05:01:03;;;;;;;17.27;2.05;;;;;;;;;;5075656;28;20108;-77
2024/01/27 05:03:28;;;;;;;8.55;1.38;;;;;;;;;;5077959;28;20086;-78
2024/01/27 05:05:53;;;;;;;14.30;2.45;;;;;;;;;;5071361;28;20111;-78
2024/01/27 05:08:19;;;;;;;11.45;1.92;;;;;;;;;;5070494;28;20396;-77
2024/01/27 05:10:44;;;;;;;15.57;1.95;;;;;;;;;;5076760;28;20595;-77
2024/01/27 05:13:09;;;;;;;16.50;2.30;;;;;;;;;;5071042;28;20059;-77
2024/01/27 05:15:34;;;;;;;15.27;2.53;;;;;;;;;;5070927;28;20032;-77
2024/01/27 05:18:00;;;;;;;11.00;1.83;;;;;;;;;;5070935;28;20064;-77
2024/01/27 05:20:25;;;;;;;13.65;2.22;;;;;;;;;;5077574;28;20024;-78
2024/01/27 05:22:50;;;;;;;11.70;2.15;;;;;;;;;;5070806;28;20470;-77
2024/01/27 05:25:16;;;;;;;12.38;1.70;;;;;;;;;;5070713;28;20033;-78
2024/01/27 05:27:41;;;;;;;12.70;2.30;;;;;;;;;;5070614;28;20032;-77
2024/01/27 05:30:07;;;;;;;11.00;2.10;;;;;;;;;;5077127;28;20027;-78
2024/01/27 05:32:32;;;;;;;14.65;2.05;;;;;;;;;;5077874;28;20047;-77
2024/01/27 05:34:58;;;;;;;16.23;1.92;;;;;;;;;;5071904;28;20037;-77
2024/01/27 05:37:23;;;;;;;12.38;1.85;;;;;;;;;;5070710;28;20045;-77
2024/01/27 05:39:48;;;;;;;11.27;1.98;;;;;;;;;;5074073;28;20032;-77
2024/01/27 05:42:13;;;;;;;12.50;2.53;;;;;;;;;;5071654;28;20060;-77
2024/01/27 05:44:40;;;;;;;10.38;2.35;;;;;;;;;;5073534;28;20033;-77
2024/01/27 05:47:05;;;;;;;11.38;1.90;;;;;;;;;;5070887;28;20037;-77
2024/01/27 05:49:31;;;;;;;10.15;1.75;;;;;;;;;;5081048;28;20070;-77
2024/01/27 05:51:56;;;;;;;16.23;2.25;;;;;;;;;;5080985;28;20033;-77
2024/01/27 05:54:22;;;;;;;8.25;1.85;;;;;;;;;;5073298;28;20041;-77
2024/01/27 05:56:47;;;;;;;16.25;2.65;;;;;;;;;;5077130;28;20040;-77
2024/01/27 05:59:12;;;;;;;10.48;2.35;;;;;;;;;;5073618;28;20029;-77
2024/01/27 06:01:40;;;;;;;9.52;1.92;;;;;;;;;;5079407;28;20071;-77
2024/01/27 06:04:05;;;;;;;10.80;2.70;;;;;;;;;;5077179;28;20044;-77
2024/01/27 06:06:30;;;;;;;11.90;2.17;;;;;;;;;;5070528;28;20405;-77
2024/01/27 06:08:55;;;;;;;11.45;1.70;;;;;;;;;;5069755;28;20064;-77
2024/01/27 06:11:24;;;;;;;13.05;2.00;;;;;;;;;;5077050;28;20036;-78
2024/01/27 06:13:49;;;;;;;19.23;2.97;;;;;;;;;;5068728;28;20058;-77
2024/01/27 06:16:15;;;;;;;12.95;2.28;;;;;;;;;;5070247;28;20041;-77
2024/01/27 06:18:40;;;;;;;13.05;2.00;;;;;;;;;;5076716;28;20062;-77
2024/01/27 06:21:05;;;;;;;17.33;2.55;;;;;;;;;;5085230;28;20039;-77
2024/01/27 06:23:30;;;;;;;10.38;1.90;;;;;;;;;;5084539;28;20104;-77
2024/01/27 06:25:55;;;;;;;14.38;2.30;;;;;;;;;;5085508;28;20036;-77
2024/01/27 06:28:21;;;;;;;10.95;1.95;;;;;;;;;;5073811;28;20041;-77
2024/01/27 06:30:46;;;;;;;9.35;2.28;;;;;;;;;;5079307;28;20066;-77
2024/01/27 06:33:11;;;;;;;11.27;1.55;;;;;;;;;;5079492;28;20032;-77
2024/01/27 06:35:36;;;;;;;19.98;2.45;;;;;;;;;;5073598;28;20093;-77
2024/01/27 06:38:02;;;;;;;19.70;2.58;;;;;;;;;;5073905;28;20040;-77
2024/01/27 06:40:27;;;;;;;11.68;1.95;;;;;;;;;;5079645;28;20058;-77
2024/01/27 06:42:53;;;;;;;12.10;1.80;;;;;;;;;;5072272;28;20044;-77
2024/01/27 06:45:18;;;;;;;12.05;2.50;;;;;;;;;;5072041;28;20113;-77
2024/01/27 06:47:43;;;;;;;10.85;1.73;;;;;;;;;;5081152;28;20055;-77
2024/01/27 06:50:09;;;;;;;15.02;2.22;;;;;;;;;;5078727;28;20039;-77
2024/01/27 06:52:34;;;;;;;11.23;2.25;;;;;;;;;;5072530;28;20066;-77
2024/01/27 06:54:59;;;;;;;11.00;1.70;;;;;;;;;;5071704;28;20037;-77
2024/01/27 06:57:24;;;;;;;11.48;1.92;;;;;;;;;;5071841;28;20054;-78
2024/01/27 06:59:55;;;;;;;12.38;2.45;;;;;;;;;;5075871;28;20107;-77
2024/01/27 07:02:27;;;;;;;15.50;2.50;;;;;;;;;;5079870;28;20060;-77
2024/01/27 07:04:52;;;;;;;9.07;1.80;;;;;;;;;;5072978;28;20499;-77
2024/01/27 07:07:18;;;;;;;11.60;2.35;;;;;;;;;;5055385;28;20151;-77
2024/01/27 07:09:43;;;;;;;17.55;2.72;;;;;;;;;;5074423;28;20028;-78
2024/01/27 07:12:09;;;;;;;11.23;2.17;;;;;;;;;;5077173;28;20024;-77
2024/01/27 07:14:34;;;;;;;11.40;1.92;;;;;;;;;;5072602;28;20115;-77
2024/01/27 07:16:59;;;;;;;9.18;1.73;;;;;;;;;;5072912;28;20032;-77
2024/01/27 07:19:24;;;;;;;15.95;1.80;;;;;;;;;;5072755;28;20032;-78
2024/01/27 07:21:50;;;;;;;11.23;2.05;;;;;;;;;;5078844;28;20117;-78
2024/01/27 07:24:15;;;;;;;10.13;2.33;;;;;;;;;;5072510;28;20374;-77
2024/01/27 07:26:41;;;;;;;12.15;2.72;;;;;;;;;;5076796;28;20039;-77
2024/01/27 07:29:07;;;;;;;13.65;2.15;;;;;;;;;;5078361;28;20119;-77
2024/01/27 07:31:33;;;;;;;16.55;2.25;;;;;;;;;;5078375;28;20519;-77
2024/01/27 07:33:58;;;;;;;15.50;3.00;;;;;;;;;;5075805;28;20039;-77
2024/01/27 07:36:25;;;;;;;17.45;2.63;;;;;;;;;;5071333;28;20489;-77
2024/01/27 07:38:50;;;;;;;16.13;2.15;;;;;;;;;;5076455;28;20403;-77
2024/01/27 07:41:15;;;;;;;14.93;2.65;;;;;;;;;;5079907;28;20028;-77
2024/01/27 07:43:41;;;;;;;19.98;3.05;;;;;;;;;;5081697;28;20100;-77
2024/01/27 07:46:07;;;;;;;15.68;3.30;;;;;;;;;;5079662;28;20051;-77
2024/01/27 07:48:32;;;;;;;18.55;2.28;;;;;;;;;;5077513;28;20036;-77
2024/01/27 07:50:57;;;;;;;15.10;2.90;;;;;;;;;;5076241;28;20071;-77
2024/01/27 07:53:22;;;;;;;10.65;2.67;;;;;;;;;;5072926;28;20037;-77
2024/01/27 07:55:48;;;;;;;10.57;2.67;;;;;;;;;;5077528;28;20035;-77
2024/01/27 07:58:13;;;;;;;12.38;2.10;;;;;;;;;;5070842;28;20033;-77
2024/01/27 08:00:38;;;;;;;15.50;2.60;;;;;;;;;;5080794;28;20043;-78
2024/01/27 08:03:03;;;;;;;15.73;2.92;;;;;;;;;;5073830;28;20112;-77
2024/01/27 08:05:28;;;;;;;20.92;3.28;;;;;;;;;;5072588;28;20047;-77
2024/01/27 08:07:53;;;;;;;12.75;2.08;;;;;;;;;;5077836;28;20070;-77
2024/01/27 08:10:19;;;;;;;11.32;2.88;;;;;;;;;;5079532;28;20047;-77
2024/01/27 08:12:44;;;;;;;15.65;3.28;;;;;;;;;;5075081;28;20404;-77
2024/01/27 08:15:09;;;;;;;14.35;2.60;;;;;;;;;;5074654;28;20024;-77
2024/01/27 08:17:34;;;;;;;13.25;3.22;;;;;;;;;;5072129;28;20113;-77
2024/01/27 08:19:59;;;;;;;12.88;2.33;;;;;;;;;;5077274;28;20032;-77
2024/01/27 08:22:24;;;;;;;14.40;2.70;;;;;;;;;;5086540;28;20603;-77
2024/01/27 08:24:50;;;;;;;14.48;2.65;;;;;;;;;;5073118;28;20025;-77
2024/01/27 08:27:15;;;;;;;16.48;3.22;;;;;;;;;;5075786;28;20439;-77
2024/01/27 08:29:40;;;;;;;18.77;3.17;;;;;;;;;;5070655;28;20028;-77
2024/01/27 08:32:05;;;;;;;15.60;2.40;;;;;;;;;;5083070;28;20480;-77
2024/01/27 08:34:31;;;;;;;11.70;2.53;;;;;;;;;;5080720;28;20056;-77
2024/01/27 08:37:02;;;;;;;17.65;2.53;;;;;;;;;;5074149;28;20028;-77
2024/01/27 08:39:27;;;;;;;16.77;3.50;;;;;;;;;;5071960;28;20036;-77
2024/01/27 08:41:52;;;;;;;12.73;2.40;;;;;;;;;;5080991;28;20089;-77
2024/01/27 08:44:17;;;;;;;16.77;3.17;;;;;;;;;;5071268;28;20032;-77
2024/01/27 08:46:43;;;;;;;13.52;2.67;;;;;;;;;;5076103;28;20032;-77
2024/01/27 08:49:08;;;;;;;15.50;3.33;;;;;;;;;;5084897;28;20032;-77
2024/01/27 08:51:34;;;;;;;18.05;2.78;;;;;;;;;;5083642;28;20040;-77
2024/01/27 08:53:59;;;;;;;13.27;2.47;;;;;;;;;;5072768;28;20461;-78
2024/01/27 08:56:24;;;;;;;14.27;3.13;;;;;;;;;;5071011;28;20032;-77
2024/01/27 08:58:49;;;;;;;18.08;3.92;;;;;;;;;;5071487;28;20029;-77
2024/01/27 09:01:17;;;;;;;22.63;3.65;;;;;;;;;;5075089;28;20790;-77
2024/01/27 09:03:43;;;;;;;11.45;2.10;;;;;;;;;;5077794;28;20081;-77
2024/01/27 09:06:09;;;;;;;14.82;3.08;;;;;;;;;;5071076;28;20125;-77
2024/01/27 09:08:34;;;;;;;15.10;2.70;;;;;;;;;;5070980;28;20045;-77
2024/01/27 09:11:00;;;;;;;15.25;3.25;;;;;;;;;;5073700;28;20036;-77
2024/01/27 09:13:25;;;;;;;15.95;2.83;;;;;;;;;;5070530;28;20386;-77
2024/01/27 09:15:50;;;;;;;13.65;2.47;;;;;;;;;;5069944;28;20040;-76
2024/01/27 09:18:16;;;;;;;15.15;2.97;;;;;;;;;;5070835;28;20024;-77
2024/01/27 09:20:42;;;;;;;15.10;2.78;;;;;;;;;;5073506;28;20052;-77
2024/01/27 09:23:07;;;;;;;14.93;2.50;;;;;;;;;;5069560;28;20067;-77
2024/01/27 09:25:32;;;;;;;12.60;2.53;;;;;;;;;;5070536;28;20056;-77
2024/01/27 09:28:00;;;;;;;15.15;2.80;;;;;;;;;;5075210;28;20036;-77
2024/01/27 09:30:26;;;;;;;18.58;3.45;;;;;;;;;;5074784;28;20496;-77
2024/01/27 09:32:51;;;;;;;14.73;3.00;;;;;;;;;;5077551;28;20039;-77
2024/01/27 09:35:16;;;;;;;19.98;3.90;;;;;;;;;;5070648;28;20040;-78
2024/01/27 09:37:43;;;;;;;14.50;3.95;;;;;;;;;;5070478;28;20052;-77
2024/01/27 09:40:08;;;;;;;16.65;3.13;;;;;;;;;;5073079;28;20032;-77
2024/01/27 09:42:34;;;;;;;13.85;2.92;;;;;;;;;;5070735;28;20054;-77
2024/01/27 09:45:01;;;;;;;16.00;3.35;;;;;;;;;;5071697;28;20093;-77
2024/01/27 09:47:26;;;;;;;16.60;3.40;;;;;;;;;;5070632;28;20043;-78
2024/01/27 09:49:51;;;;;;;18.50;3.03;;;;;;;;;;5070543;28;20108;-77
2024/01/27 09:52:17;;;;;;;11.88;3.03;;;;;;;;;;5073978;28;20047;-76
2024/01/27 09:54:42;;;;;;;15.80;3.25;;;;;;;;;;5070508;28;20148;-77
2024/01/27 09:57:08;;;;;;;12.27;3.33;;;;;;;;;;5074554;28;20064;-77
2024/01/27 09:59:35;;;;;;;13.30;3.33;;;;;;;;;;5074296;28;20036;-78
2024/01/27 10:02:00;;;;;;;14.75;4.15;;;;;;;;;;5083740;28;20024;-77
2024/01/27 10:04:26;;;;;;;15.43;3.85;;;;;;;;;;5074885;28;20112;-77
2024/01/27 10:06:53;;;;;;;21.95;4.72;;;;;;;;;;5074986;28;20027;-78
2024/01/27 10:09:18;;;;;;;14.18;3.47;;;;;;;;;;5073455;28;20082;-77
2024/01/27 10:11:46;;;;;;;21.88;3.90;;;;;;;;;;5078171;28;20024;-77
2024/01/27 10:14:11;;;;;;;16.23;4.00;;;;;;;;;;5079966;28;20511;-77
2024/01/27 10:16:46;;;;;;;17.85;4.00;;;;;;;;;;5081748;28;20028;-77
2024/01/27 10:19:16;;;;;;;13.95;3.97;;;;;;;;;;5073617;28;20028;-77
2024/01/27 10:21:41;;;;;;;20.85;5.10;;;;;;;;;;5077458;28;20032;-77
2024/01/27 10:24:06;;;;;;;15.43;3.72;;;;;;;;;;5073495;28;20107;-78
2024/01/27 10:26:32;;;;;;;13.77;3.05;;;;;;;;;;5073565;28;20052;-78
2024/01/27 10:28:58;;;;;;;16.80;4.53;;;;;;;;;;5073674;28;20036;-77
2024/01/27 10:31:26;;;;;;;17.88;3.80;;;;;;;;;;5078555;28;20036;-77
2024/01/27 10:33:53;;;;;;;13.45;3.58;;;;;;;;;;5079820;28;20029;-78
2024/01/27 10:36:18;;;;;;;15.57;3.15;;;;;;;;;;5073820;28;20036;-77
2024/01/27 10:38:43;;;;;;;13.40;2.70;;;;;;;;;;5073531;28;20547;-77
2024/01/27 10:41:12;;;;;;;14.73;3.85;;;;;;;;;;5076475;28;20036;-78
2024/01/27 10:43:38;;;;;;;17.58;3.20;;;;;;;;;;5080219;28;20029;-78
2024/01/27 10:46:05;;;;;;;15.20;3.25;;;;;;;;;;5076009;28;20031;-78
2024/01/27 10:48:31;;;;;;;21.95;3.88;;;;;;;;;;5075339;28;20033;-78
2024/01/27 10:50:57;;;;;;;12.95;3.15;;;;;;;;;;5076238;28;20078;-77
2024/01/27 10:53:30;;;;;;;15.23;3.38;;;;;;;;;;5073056;28;20036;-77
2024/01/27 10:55:57;;;;;;;19.27;4.13;;;;;;;;;;5073097;28;20024;-77
2024/01/27 10:58:26;;;;;;;14.38;3.92;;;;;;;;;;5073506;28;20131;-77
2024/01/27 11:00:52;;;;;;;15.65;3.28;;;;;;;;;;5076780;28;20032;-77
2024/01/27 11:03:18;;;;;;;12.05;3.22;;;;;;;;;;5077813;28;20111;-77
2024/01/27 11:05:44;;;;;;;10.27;2.60;;;;;;;;;;5071481;28;20458;-77
2024/01/27 11:08:10;;;;;;;15.52;3.63;;;;;;;;;;5071791;28;20539;-77
2024/01/27 11:10:38;;;;;;;15.43;3.15;;;;;;;;;;5075072;28;20055;-77
2024/01/27 11:13:04;;;;;;;16.58;3.72;;;;;;;;;;5074931;28;20381;-77
2024/01/27 11:15:29;;;;;;;14.32;3.67;;;;;;;;;;5072898;28;20033;-77
2024/01/27 11:17:57;;;;;;;13.15;3.20;;;;;;;;;;5071465;28;20040;-77
2024/01/27 11:20:23;;;;;;;17.05;3.20;;;;;;;;;;5074917;28;20085;-77
2024/01/27 11:22:49;;;;;;;13.32;3.53;;;;;;;;;;5072056;28;20039;-78
2024/01/27 11:25:16;;;;;;;18.35;4.13;;;;;;;;;;5071366;28;20028;-77
2024/01/27 11:27:43;;;;;;;14.60;3.10;;;;;;;;;;5071196;28;20039;-78
2024/01/27 11:30:27;;;;;;;14.75;2.80;;;;;;;;;;5073563;28;20032;-78
2024/01/27 11:32:54;;;;;;;19.25;3.05;;;;;;;;;;5079060;28;20035;-77
2024/01/27 11:35:19;;;;;;;16.17;3.45;;;;;;;;;;5070864;28;20044;-77
2024/01/27 11:37:44;;;;;;;18.00;4.70;;;;;;;;;;5078300;28;20036;-77
2024/01/27 11:40:10;;;;;;;12.70;3.25;;;;;;;;;;5075085;28;20055;-78
2024/01/27 11:42:35;;;;;;;14.68;3.47;;;;;;;;;;5080945;28;20056;-78
2024/01/27 11:45:01;;;;;;;15.18;3.80;;;;;;;;;;5077679;28;20108;-78
2024/01/27 11:47:26;;;;;;;12.57;3.75;;;;;;;;;;5071558;28;20033;-77
2024/01/27 11:49:53;;;;;;;11.70;3.10;;;;;;;;;;5078293;28;20431;-78
2024/01/27 11:52:18;;;;;;;16.90;3.10;;;;;;;;;;5073028;28;20109;-78
2024/01/27 11:54:43;;;;;;;19.70;4.32;;;;;;;;;;5071918;28;20032;-77
2024/01/27 11:57:09;;;;;;;14.70;3.28;;;;;;;;;;5073883;28;20112;-78
2024/01/27 11:59:34;;;;;;;18.80;3.28;;;;;;;;;;5071196;28;20103;-78
2024/01/27 12:02:00;;;;;;;12.32;3.13;;;;;;;;;;5078538;28;20032;-78
2024/01/27 12:04:26;;;;;;;16.95;3.50;;;;;;;;;;5074001;28;20032;-77
2024/01/27 12:06:51;;;;;;;12.38;2.58;;;;;;;;;;5079009;28;20112;-77
2024/01/27 12:09:18;;;;;;;17.70;3.35;;;;;;;;;;5077246;28;20024;-77
2024/01/27 12:11:43;;;;;;;13.00;2.83;;;;;;;;;;5081314;28;20049;-77
2024/01/27 12:14:08;;;;;;;19.40;4.28;;;;;;;;;;5076619;28;20032;-78
2024/01/27 12:16:34;;;;;;;20.17;4.65;;;;;;;;;;5076415;28;20063;-77
2024/01/27 12:18:59;;;;;;;16.65;3.15;;;;;;;;;;5077486;28;20111;-77
2024/01/27 12:21:24;;;;;;;13.95;3.30;;;;;;;;;;5076340;28;20044;-77
2024/01/27 12:23:50;;;;;;;16.25;3.53;;;;;;;;;;5083536;28;20028;-77
2024/01/27 12:26:15;;;;;;;9.27;2.90;;;;;;;;;;5078018;28;20043;-78
2024/01/27 12:28:41;;;;;;;19.35;3.08;;;;;;;;;;5075108;28;20488;-77
2024/01/27 12:31:06;;;;;;;14.77;2.92;;;;;;;;;;5078502;28;20046;-78
2024/01/27 12:33:31;;;;;;;15.45;3.92;;;;;;;;;;5078379;28;20119;-77
2024/01/27 12:35:56;;;;;;;18.45;2.70;;;;;;;;;;5071174;28;20439;-77
2024/01/27 12:38:22;;;;;;;13.10;2.72;;;;;;;;;;5069716;28;20135;-77
2024/01/27 12:40:47;;;;;;;17.50;2.92;;;;;;;;;;5073275;28;20413;-78
2024/01/27 12:43:12;;;;;;;18.75;3.28;;;;;;;;;;5071003;28;20063;-78
2024/01/27 12:45:37;;;;;;;14.40;2.58;;;;;;;;;;5069819;28;20060;-78
2024/01/27 12:48:05;;;;;;;15.32;2.78;;;;;;;;;;5071050;28;20040;-78
2024/01/27 12:50:30;;;;;;;15.43;2.72;;;;;;;;;;5073228;28;20118;-77
2024/01/27 12:52:55;;;;;;;15.77;3.40;;;;;;;;;;5073123;28;20119;-77
2024/01/27 12:55:20;;;;;;;13.10;2.40;;;;;;;;;;5070791;28;20055;-77
2024/01/27 12:57:46;;;;;;;15.70;2.60;;;;;;;;;;5076874;28;20028;-77
2024/01/27 13:00:12;;;;;;;13.88;2.33;;;;;;;;;;5070782;28;20503;-77
2024/01/27 13:02:37;;;;;;;9.10;2.50;;;;;;;;;;5078756;28;20050;-77
2024/01/27 13:05:02;;;;;;;11.40;2.72;;;;;;;;;;5070600;28;20036;-77
2024/01/27 13:07:27;;;;;;;11.00;2.22;;;;;;;;;;5077623;28;20404;-77
2024/01/27 13:09:53;;;;;;;11.10;2.05;;;;;;;;;;5070372;28;20423;-77
2024/01/27 13:12:18;;;;;;;13.57;2.78;;;;;;;;;;5070747;28;20043;-77
2024/01/27 13:14:43;;;;;;;16.05;2.65;;;;;;;;;;5069397;28;20143;-77
2024/01/27 13:17:08;;;;;;;14.02;2.20;;;;;;;;;;5070548;28;20040;-77
2024/01/27 13:19:34;;;;;;;12.45;2.42;;;;;;;;;;5068755;28;20037;-77
2024/01/27 13:21:59;;;;;;;13.65;2.67;;;;;;;;;;5073388;28;20036;-77
2024/01/27 13:24:25;;;;;;;16.55;3.10;;;;;;;;;;5070554;28;20043;-77
2024/01/27 13:26:51;;;;;;;13.57;2.47;;;;;;;;;;5073182;28;20040;-77
2024/01/27 13:29:16;;;;;;;15.13;2.47;;;;;;;;;;5070529;28;20040;-77
2024/01/27 13:31:42;;;;;;;14.43;2.55;;;;;;;;;;5078288;28;20488;-78
2024/01/27 13:34:07;;;;;;;10.95;2.40;;;;;;;;;;5085588;28;20492;-78
2024/01/27 13:36:33;;;;;;;11.18;2.20;;;;;;;;;;5074683;28;20038;-77
2024/01/27 13:38:59;;;;;;;12.57;2.72;;;;;;;;;;5074507;28;20030;-77
2024/01/27 13:41:24;;;;;;;12.93;2.60;;;;;;;;;;5074059;28;20454;-77
2024/01/27 13:43:49;;;;;;;10.50;2.50;;;;;;;;;;5074319;28;20028;-77
2024/01/27 13:46:15;;;;;;;11.00;2.28;;;;;;;;;;5074590;28;20523;-78
2024/01/27 13:48:40;;;;;;;13.80;3.33;;;;;;;;;;5074531;28;20032;-77
2024/01/27 13:51:05;;;;;;;12.73;2.78;;;;;;;;;;5074789;28;20405;-78
2024/01/27 13:53:30;;;;;;;12.95;2.05;;;;;;;;;;5074174;28;20074;-77
2024/01/27 13:55:55;;;;;;;9.73;2.03;;;;;;;;;;5078571;28;20074;-78
2024/01/27 13:58:21;;;;;;;13.40;2.45;;;;;;;;;;5076232;28;20041;-78
2024/01/27 14:00:46;;;;;;;16.17;2.88;;;;;;;;;;5074549;28;20039;-77
2024/01/27 14:03:12;;;;;;;13.35;2.63;;;;;;;;;;5072689;28;20036;-78
2024/01/27 14:05:38;;;;;;;13.05;2.30;;;;;;;;;;5075595;28;20079;-77
2024/01/27 14:08:04;;;;;;;10.13;2.05;;;;;;;;;;5080953;28;20148;-77
2024/01/27 14:10:29;;;;;;;13.07;2.05;;;;;;;;;;5074222;28;20064;-77
2024/01/27 14:12:54;;;;;;;10.52;2.33;;;;;;;;;;5080975;28;20583;-78
2024/01/27 14:15:20;;;;;;;10.75;2.60;;;;;;;;;;5074191;28;20037;-78
2024/01/27 14:17:46;;;;;;;14.27;3.40;;;;;;;;;;5072589;28;20119;-77
2024/01/27 14:20:12;;;;;;;10.40;1.75;;;;;;;;;;5072346;28;20112;-77